Decoded Metar for KJAC (JACKSON in WY, USA) (IATA:JAC) | Meteo·Mobile Aviation Weather
aviador You're here:

KJAC Decoded Metar

JACKSON in WY, USA
Report Time2018-12-17 14:56:00
UTC Time2018-12-17 15:03:12
Flight Rules vfr VFR
Wind040° at 03 kt
W.Decomp.*RWY 01: 2.9 kt HW 0.9 kt RCW
W.Rank040° ranks 17
Current wind is below 040° avg. (4.7)
Visibility9999 m
Phenomena:N/A
Clouds:N/A
Expected CloudBase > 400 ft AGL from Temp-Dew spread
CeilingNone
Temp-16°C (ISA -18)
Dew Point-17°C (92% RH)
AAT-20.5°C
QNH1021 hPa
Density Alt3,934 ft
Elevation6,434 ft
Report Wrong Elevation
Raw Report
KJAC 171456Z 04003KT 10SM CLR M16/M17 A3015 RMK AO2 SLP318
T11561172 56002=

Extra information for KJAC:More info

Metar Taf Metar & Taf Last 4 Metars F.Rules Stats Wind Profile Meteogram Temp Stats Airport Information Weather charts Add Link Nearby VenuesMetar ALERT Operation Metar Decoded Social comments

AIRNAV info for KJAC